Time;durP1;ratioP1;P1;durP2;ratioP2;P2;SDS_P1;SDS_P2;PMS_P1;PMS_P2;Temp;Humidity;BMP_temperature;BMP_pressure;BME280_temperature;BME280_humidity;BME280_pressure;Samples;Min_cycle;Max_cycle;Signal;HPM_P1;HPM_P2
2024/02/13 00:00:12;;;;;;;8.77;3.47;;;;;;;4.08;100.00;98710.28;4986728;28;20081;-74
2024/02/13 00:02:39;;;;;;;11.75;3.47;;;;;;;3.78;100.00;98689.47;4969084;28;20054;-75
2024/02/13 00:05:08;;;;;;;10.95;4.10;;;;;;;3.55;100.00;98682.03;4995010;28;20027;-74
2024/02/13 00:07:34;;;;;;;11.93;3.72;;;;;;;3.53;100.00;98692.06;4968203;28;20031;-75
2024/02/13 00:09:59;;;;;;;9.38;3.30;;;;;;;3.55;100.00;98714.13;4971203;28;20257;-74
2024/02/13 00:12:25;;;;;;;9.90;3.13;;;;;;;3.54;100.00;98707.13;4972977;28;20038;-74
2024/02/13 00:14:51;;;;;;;7.90;2.55;;;;;;;3.77;100.00;98717.22;4979283;28;20121;-74
2024/02/13 00:17:17;;;;;;;7.32;2.15;;;;;;;4.08;100.00;98744.25;4972320;28;20033;-75
2024/02/13 00:19:42;;;;;;;13.02;2.20;;;;;;;4.12;100.00;98721.53;4973840;28;20062;-75
2024/02/13 00:22:11;;;;;;;7.88;2.00;;;;;;;4.29;100.00;98727.72;4964626;28;20070;-75
2024/02/13 00:24:37;;;;;;;4.25;1.35;;;;;;;4.42;100.00;98730.75;4973486;28;20022;-74
2024/02/13 00:27:02;;;;;;;7.55;1.45;;;;;;;4.59;100.00;98734.31;4976963;28;20344;-75
2024/02/13 00:29:28;;;;;;;12.85;1.70;;;;;;;4.71;100.00;98735.63;4972676;28;20022;-75
2024/02/13 00:31:53;;;;;;;8.25;1.50;;;;;;;4.85;100.00;98731.47;4971920;28;20030;-74
2024/02/13 00:34:21;;;;;;;5.28;1.83;;;;;;;5.03;100.00;98745.50;4970965;28;20282;-74
2024/02/13 00:36:49;;;;;;;5.45;1.80;;;;;;;5.19;100.00;98751.88;4990734;28;20052;-75
2024/02/13 00:39:14;;;;;;;8.45;1.30;;;;;;;5.20;100.00;98734.75;4987650;28;20027;-74
2024/02/13 00:41:41;;;;;;;7.00;1.27;;;;;;;5.43;100.00;98759.84;4973301;28;20026;-75
2024/02/13 00:44:07;;;;;;;7.97;1.85;;;;;;;5.39;100.00;98757.69;4971761;28;20129;-74
2024/02/13 00:46:32;;;;;;;6.90;1.70;;;;;;;5.43;100.00;98756.34;4969336;28;20022;-75
2024/02/13 00:48:58;;;;;;;10.68;1.25;;;;;;;5.36;100.00;98756.16;4976749;28;20026;-75
2024/02/13 00:51:25;;;;;;;7.35;1.23;;;;;;;5.56;100.00;98785.31;4971870;28;20026;-74
2024/02/13 00:53:50;;;;;;;6.78;1.92;;;;;;;5.44;100.00;98771.41;4980546;28;20057;-75
2024/02/13 00:56:15;;;;;;;4.68;1.20;;;;;;;5.48;100.00;98781.63;4970792;28;20030;-74
2024/02/13 00:58:43;;;;;;;7.30;1.38;;;;;;;5.54;100.00;98784.66;4979843;28;20014;-74
2024/02/13 01:01:09;;;;;;;5.57;1.65;;;;;;;5.49;100.00;98796.72;4971899;28;20191;-74
2024/02/13 01:03:36;;;;;;;7.68;1.27;;;;;;;5.50;100.00;98797.56;4991498;28;20023;-74
2024/02/13 01:06:03;;;;;;;8.45;1.48;;;;;;;5.46;100.00;98796.25;4971413;28;20030;-74
2024/02/13 01:08:28;;;;;;;5.03;1.55;;;;;;;5.60;100.00;98816.16;4972121;28;20030;-74
2024/02/13 01:10:54;;;;;;;12.20;1.80;;;;;;;5.49;100.00;98801.25;4968510;28;20344;-74
2024/02/13 01:13:20;;;;;;;3.90;1.08;;;;;;;5.62;100.00;98820.34;4973537;28;20349;-74
2024/02/13 01:15:45;;;;;;;4.25;1.35;;;;;;;5.65;100.00;98821.84;4968086;28;20198;-74
2024/02/13 01:18:12;;;;;;;6.60;1.50;;;;;;;5.66;100.00;98829.75;4970910;28;20025;-74
2024/02/13 01:20:37;;;;;;;5.82;1.55;;;;;;;5.53;100.00;98810.66;4970830;28;20049;-74
2024/02/13 01:23:02;;;;;;;4.93;1.30;;;;;;;5.46;100.00;98818.53;4970842;28;20031;-75
2024/02/13 01:25:30;;;;;;;3.92;1.38;;;;;;;5.58;100.00;98839.63;4969382;28;20019;-74
2024/02/13 01:27:57;;;;;;;8.70;1.73;;;;;;;5.42;100.00;98822.59;4962062;28;20082;-74
2024/02/13 01:30:23;;;;;;;4.05;1.23;;;;;;;5.52;100.00;98853.75;4966058;28;20041;-74
2024/02/13 01:32:49;;;;;;;6.53;1.60;;;;;;;5.45;100.00;98853.59;4978603;28;20307;-74
2024/02/13 01:35:16;;;;;;;6.82;2.10;;;;;;;5.17;100.00;98839.69;4967663;28;20038;-74
2024/02/13 01:37:43;;;;;;;6.35;2.05;;;;;;;4.96;100.00;98837.50;4966490;28;20026;-74
2024/02/13 01:40:10;;;;;;;13.80;2.38;;;;;;;4.84;100.00;98861.94;4968449;28;20030;-74
2024/02/13 01:42:37;;;;;;;6.53;2.10;;;;;;;4.56;100.00;98849.84;4980035;28;20038;-74
2024/02/13 01:45:13;;;;;;;6.00;2.03;;;;;;;4.44;100.00;98851.97;4975103;28;20117;-74
2024/02/13 01:47:41;;;;;;;4.50;1.52;;;;;;;4.35;100.00;98861.00;4962456;28;20027;-74
2024/02/13 01:50:08;;;;;;;5.43;1.93;;;;;;;4.32;100.00;98855.94;4991840;28;20277;-74
2024/02/13 01:52:35;;;;;;;5.80;1.85;;;;;;;4.40;100.00;98866.69;4970756;28;20090;-74
2024/02/13 01:55:02;;;;;;;11.70;2.72;;;;;;;4.37;100.00;98859.81;4975182;28;20050;-74
2024/02/13 01:57:31;;;;;;;8.15;2.20;;;;;;;4.41;100.00;98868.38;4985222;28;20037;-74
2024/02/13 01:59:57;;;;;;;5.15;1.83;;;;;;;4.36;100.00;98858.16;4991323;28;20050;-74
2024/02/13 02:02:23;;;;;;;9.40;2.33;;;;;;;4.46;100.00;98871.41;4993380;28;20093;-73
2024/02/13 02:04:50;;;;;;;6.50;2.17;;;;;;;4.66;100.00;98889.88;4978424;28;20069;-73
2024/02/13 02:07:16;;;;;;;7.18;2.42;;;;;;;4.61;100.00;98872.47;4966857;28;20026;-73
2024/02/13 02:09:43;;;;;;;7.43;1.88;;;;;;;4.81;100.00;98877.53;4978661;28;20029;-74
2024/02/13 02:12:11;;;;;;;5.72;2.10;;;;;;;4.71;100.00;98866.09;4973127;28;20022;-73
2024/02/13 02:14:38;;;;;;;9.65;2.35;;;;;;;4.92;100.00;98879.88;4991303;28;20026;-74
2024/02/13 02:17:10;;;;;;;8.80;2.00;;;;;;;4.80;100.00;98874.00;4970667;28;20026;-73
2024/02/13 02:19:36;;;;;;;8.35;1.90;;;;;;;5.02;100.00;98893.13;4973348;28;20077;-74
2024/02/13 02:22:03;;;;;;;6.15;2.00;;;;;;;5.01;100.00;98892.31;4993041;28;20042;-73
2024/02/13 02:24:31;;;;;;;6.70;1.73;;;;;;;5.00;100.00;98881.72;4979091;28;20037;-74
2024/02/13 02:26:57;;;;;;;5.28;1.92;;;;;;;4.98;100.00;98881.91;4977310;28;20050;-74
2024/02/13 02:29:25;;;;;;;5.40;1.77;;;;;;;5.09;100.00;98901.38;4977214;28;20046;-74
2024/02/13 02:31:51;;;;;;;11.43;2.03;;;;;;;5.02;100.00;98883.25;4974129;28;20075;-74
2024/02/13 02:34:18;;;;;;;9.77;1.70;;;;;;;4.93;100.00;98878.06;4990407;28;20026;-74
2024/02/13 02:36:45;;;;;;;9.52;1.95;;;;;;;4.98;100.00;98895.31;4977093;28;20027;-74
2024/02/13 02:39:11;;;;;;;12.55;2.33;;;;;;;4.96;100.00;98897.31;4974524;28;20015;-74
2024/02/13 02:41:38;;;;;;;8.30;1.60;;;;;;;4.66;100.00;98865.75;4971087;28;20334;-74
2024/02/13 02:44:03;;;;;;;6.22;1.73;;;;;;;4.66;100.00;98889.88;4973226;28;20080;-74
2024/02/13 02:46:29;;;;;;;6.20;1.35;;;;;;;4.51;100.00;98887.00;4975536;28;20035;-73
2024/02/13 02:48:54;;;;;;;9.00;2.10;;;;;;;4.54;100.00;98924.19;4973423;28;20034;-74
2024/02/13 02:51:19;;;;;;;7.47;1.55;;;;;;;4.37;100.00;98910.72;4968430;28;20077;-74
2024/02/13 02:53:45;;;;;;;8.98;1.60;;;;;;;4.23;100.00;98914.00;4979739;28;20029;-74
2024/02/13 02:56:15;;;;;;;10.60;1.67;;;;;;;4.10;100.00;98900.22;4971999;28;20019;-74
2024/02/13 02:58:42;;;;;;;4.90;1.80;;;;;;;4.03;100.00;98912.56;4970899;28;20086;-74
2024/02/13 03:01:08;;;;;;;12.27;1.95;;;;;;;4.14;100.00;98923.00;4971421;28;20027;-75
2024/02/13 03:03:34;;;;;;;9.20;2.10;;;;;;;3.97;100.00;98918.56;4981170;28;20035;-73
2024/02/13 03:05:59;;;;;;;9.60;2.00;;;;;;;3.99;100.00;98924.59;4974507;28;20027;-74
2024/02/13 03:08:25;;;;;;;6.55;2.13;;;;;;;3.85;100.00;98923.31;4970982;28;20026;-73
2024/02/13 03:10:50;;;;;;;13.45;2.97;;;;;;;3.88;100.00;98939.09;4986119;28;20123;-76
2024/02/13 03:13:16;;;;;;;12.63;2.53;;;;;;;3.87;100.00;98951.59;4971316;28;20037;-76
2024/02/13 03:15:41;;;;;;;13.80;2.97;;;;;;;3.69;100.00;98934.75;4973494;28;20033;-74
2024/02/13 03:18:08;;;;;;;9.70;2.60;;;;;;;3.58;100.00;98948.38;4971933;28;20030;-73
2024/02/13 03:20:34;;;;;;;12.52;2.90;;;;;;;3.36;100.00;98955.06;4971042;28;20094;-73
2024/02/13 03:22:59;;;;;;;15.57;2.85;;;;;;;3.29;100.00;98963.69;4989620;28;20022;-74
2024/02/13 03:25:24;;;;;;;10.15;2.67;;;;;;;3.20;100.00;98971.81;4968802;28;20103;-73
2024/02/13 03:27:49;;;;;;;7.20;2.53;;;;;;;3.13;100.00;98971.56;4976723;28;20041;-74
2024/02/13 03:30:15;;;;;;;6.47;2.58;;;;;;;2.89;100.00;98947.25;4972935;28;20023;-73
2024/02/13 03:32:40;;;;;;;5.50;2.67;;;;;;;2.87;100.00;98943.88;4979100;28;20086;-74
2024/02/13 03:35:06;;;;;;;8.93;2.35;;;;;;;3.00;100.00;98982.59;4977801;28;20038;-74
2024/02/13 03:37:31;;;;;;;7.80;2.38;;;;;;;3.11;100.00;98996.75;4975496;28;20059;-74
2024/02/13 03:39:57;;;;;;;11.00;2.90;;;;;;;2.96;100.00;98978.56;4978443;28;20306;-73
2024/02/13 03:42:22;;;;;;;5.45;2.40;;;;;;;2.89;100.00;98952.59;4975827;28;20105;-74
2024/02/13 03:44:47;;;;;;;8.43;2.72;;;;;;;3.25;100.00;98988.22;4996428;28;20038;-74
2024/02/13 03:47:13;;;;;;;7.60;2.50;;;;;;;3.48;100.00;98991.25;4973709;28;20030;-74
2024/02/13 03:49:38;;;;;;;11.05;2.25;;;;;;;3.49;100.00;98968.88;4969556;28;20027;-73
2024/02/13 03:52:04;;;;;;;10.27;2.20;;;;;;;3.62;100.00;98993.41;4988860;28;20030;-74
2024/02/13 03:54:29;;;;;;;7.80;2.10;;;;;;;3.65;100.00;99002.97;4989718;28;20026;-74
2024/02/13 03:56:55;;;;;;;7.25;2.10;;;;;;;3.55;100.00;99003.03;4975318;28;20022;-74
2024/02/13 03:59:20;;;;;;;9.45;2.38;;;;;;;3.49;100.00;98995.63;4975236;28;20292;-74
2024/02/13 04:01:46;;;;;;;10.07;2.60;;;;;;;3.46;100.00;99009.31;4973571;28;20242;-74
2024/02/13 04:04:11;;;;;;;11.80;2.30;;;;;;;3.37;100.00;98996.84;4978637;28;20026;-74
2024/02/13 04:06:36;;;;;;;12.45;2.25;;;;;;;3.16;100.00;98965.06;4979640;28;20022;-73
2024/02/13 04:09:08;;;;;;;6.70;2.25;;;;;;;3.36;100.00;99008.56;4976815;28;20042;-74
2024/02/13 04:11:35;;;;;;;8.23;2.50;;;;;;;3.09;100.00;98978.19;4971030;28;20041;-80
2024/02/13 04:14:01;;;;;;;5.65;2.33;;;;;;;3.21;100.00;99002.88;4969507;28;20031;-82
2024/02/13 04:16:26;;;;;;;5.72;2.10;;;;;;;3.09;100.00;99004.91;4989468;28;20030;-82
2024/02/13 04:18:53;;;;;;;8.95;2.30;;;;;;;3.05;100.00;99014.25;4971244;28;20019;-82
2024/02/13 04:21:19;;;;;;;14.98;2.13;;;;;;;2.92;100.00;99009.25;4972758;28;20037;-83
2024/02/13 04:23:45;;;;;;;12.02;2.75;;;;;;;2.72;100.00;99005.81;4976897;28;20022;-81
2024/02/13 04:26:11;;;;;;;9.93;2.83;;;;;;;2.67;100.00;99021.47;4980570;28;20072;-81
2024/02/13 04:28:37;;;;;;;6.03;2.22;;;;;;;2.55;100.00;99019.97;4973617;28;20022;-81
2024/02/13 04:31:02;;;;;;;7.65;2.20;;;;;;;2.33;100.00;98984.66;4982098;28;20022;-81
2024/02/13 04:33:28;;;;;;;15.43;2.58;;;;;;;2.56;100.00;99018.97;4979938;28;20467;-81
2024/02/13 04:35:53;;;;;;;8.60;2.67;;;;;;;2.40;100.00;98990.25;4977612;28;20309;-82
2024/02/13 04:38:19;;;;;;;6.13;2.50;;;;;;;2.60;100.00;99015.88;4977275;28;20029;-81
2024/02/13 04:40:45;;;;;;;9.82;2.40;;;;;;;2.73;100.00;99020.88;4976305;28;20031;-79
2024/02/13 04:43:12;;;;;;;8.82;2.50;;;;;;;2.85;100.00;99024.19;4970863;28;20019;-81
2024/02/13 04:45:37;;;;;;;7.88;2.08;;;;;;;2.72;100.00;99000.47;4977054;28;20053;-81
2024/02/13 04:48:03;;;;;;;17.95;2.90;;;;;;;3.00;100.00;99021.88;4975239;28;20252;-79
2024/02/13 04:50:28;;;;;;;6.55;2.53;;;;;;;3.11;100.00;99042.19;4985718;28;20393;-80
2024/02/13 04:52:55;;;;;;;16.75;2.75;;;;;;;2.90;100.00;98991.69;4980988;28;20033;-80
2024/02/13 04:55:21;;;;;;;7.90;2.28;;;;;;;2.90;100.00;99036.25;4969434;28;20062;-81
2024/02/13 04:57:46;;;;;;;9.30;2.22;;;;;;;3.04;100.00;99004.56;4971770;28;20031;-80
2024/02/13 05:00:24;;;;;;;11.00;2.42;;;;;;;3.22;100.00;99029.47;4974260;28;20031;-81
2024/02/13 05:08:31;;;;;;;5.38;2.22;;;;;;;3.05;100.00;99000.88;4988734;28;20054;-80
2024/02/13 05:10:56;;;;;;;7.32;2.13;;;;;;;3.27;100.00;99026.31;4981589;28;20273;-82
2024/02/13 05:13:23;;;;;;;6.28;2.10;;;;;;;3.24;100.00;99029.31;4965061;28;20026;-81
2024/02/13 05:15:50;;;;;;;8.02;2.00;;;;;;;3.05;100.00;98984.84;4976846;28;20022;-80
2024/02/13 05:18:17;;;;;;;7.50;1.77;;;;;;;3.06;100.00;98976.66;4988240;28;20023;-79
2024/02/13 05:20:48;;;;;;;6.03;1.70;;;;;;;3.13;100.00;98978.75;4992594;28;20026;-83
2024/02/13 05:23:14;;;;;;;7.50;2.03;;;;;;;3.50;100.00;99021.38;4976055;28;20034;-81
2024/02/13 05:25:39;;;;;;;7.82;1.80;;;;;;;3.35;100.00;98983.63;4979804;28;20090;-80
2024/02/13 05:28:05;;;;;;;5.70;2.10;;;;;;;3.66;100.00;99026.03;4990647;28;20034;-75
2024/02/13 05:30:31;;;;;;;5.60;2.00;;;;;;;3.70;100.00;99033.59;4971683;28;20054;-83
2024/02/13 05:32:57;;;;;;;9.10;2.15;;;;;;;3.76;100.00;99021.31;4977565;28;20034;-80
2024/02/13 05:35:24;;;;;;;5.22;1.80;;;;;;;3.85;100.00;99030.38;4973485;28;20102;-77
2024/02/13 05:37:51;;;;;;;9.13;2.08;;;;;;;3.80;100.00;99021.97;4976873;28;20034;-81
2024/02/13 05:40:17;;;;;;;7.20;1.77;;;;;;;3.90;100.00;99028.06;4991219;28;20026;-82
2024/02/13 05:42:44;;;;;;;6.00;1.85;;;;;;;3.77;100.00;98998.19;4997481;28;20045;-83
2024/02/13 05:45:10;;;;;;;8.20;2.17;;;;;;;3.94;100.00;99032.13;4991710;28;20089;-75
2024/02/13 05:47:37;;;;;;;9.05;2.55;;;;;;;3.82;100.00;99034.19;4984446;28;20066;-75
2024/02/13 05:50:07;;;;;;;3.15;1.90;;;;;;;3.80;100.00;99036.22;4988904;28;20112;-74
2024/02/13 05:52:37;;;;;;;4.95;2.33;;;;;;;3.88;100.00;99035.44;4988166;28;20026;-74
2024/02/13 05:55:03;;;;;;;5.38;2.20;;;;;;;3.64;100.00;98996.78;4997602;28;20025;-80
2024/02/13 05:57:30;;;;;;;7.85;2.42;;;;;;;4.00;100.00;99044.06;4987657;28;20189;-74
2024/02/13 05:59:56;;;;;;;6.15;2.00;;;;;;;3.77;100.00;99004.38;4972265;28;20309;-74
2024/02/13 06:02:22;;;;;;;5.78;1.95;;;;;;;3.92;100.00;99028.75;4992611;28;20027;-76
2024/02/13 06:04:49;;;;;;;5.18;1.60;;;;;;;3.71;100.00;98987.13;4999732;28;20086;-84
2024/02/13 06:07:14;;;;;;;8.02;2.03;;;;;;;4.05;100.00;99037.22;4980324;28;20058;-81
2024/02/13 06:09:39;;;;;;;7.28;1.80;;;;;;;3.83;100.00;99014.50;4978104;28;20022;-83
2024/02/13 06:12:06;;;;;;;9.82;3.42;;;;;;;3.71;100.00;99029.09;4987900;28;20026;-83
2024/02/13 06:14:32;;;;;;;9.00;2.20;;;;;;;3.79;100.00;99053.25;4972026;28;20078;-83
2024/02/13 06:16:58;;;;;;;6.15;2.08;;;;;;;3.86;100.00;99061.50;4980592;28;20249;-86
2024/02/13 06:19:24;;;;;;;8.48;2.05;;;;;;;3.99;100.00;99072.66;4975821;28;20050;-86
2024/02/13 06:21:50;;;;;;;8.82;2.40;;;;;;;4.02;100.00;99064.31;4974349;28;20061;-85
2024/02/13 06:24:15;;;;;;;4.53;1.58;;;;;;;3.92;100.00;99042.97;4974089;28;20225;-86
2024/02/13 06:26:40;;;;;;;11.93;2.50;;;;;;;4.08;100.00;99063.69;4977362;28;20094;-85
2024/02/13 06:29:08;;;;;;;8.55;2.35;;;;;;;4.02;100.00;99053.59;4986071;28;20042;-85
2024/02/13 06:31:33;;;;;;;5.50;1.83;;;;;;;4.09;100.00;99069.91;4983448;28;20050;-84
2024/02/13 06:33:59;;;;;;;8.25;2.45;;;;;;;4.12;100.00;99083.81;4999206;28;20026;-87
2024/02/13 06:36:26;;;;;;;11.68;3.03;;;;;;;3.96;100.00;99051.56;4976355;28;20545;-73
2024/02/13 06:38:54;;;;;;;4.65;2.65;;;;;;;4.13;100.00;99080.13;4984940;28;20022;-73
2024/02/13 06:41:19;;;;;;;7.13;2.90;;;;;;;4.26;100.00;99086.94;4969545;28;20039;-72
2024/02/13 06:43:45;;;;;;;11.23;2.72;;;;;;;4.27;100.00;99093.94;4976715;28;20289;-82
2024/02/13 06:46:10;;;;;;;6.45;2.60;;;;;;;4.25;100.00;99095.97;4969810;28;20026;-81
2024/02/13 06:48:35;;;;;;;13.23;4.82;;;;;;;4.11;100.00;99087.50;4975569;28;20034;-82
2024/02/13 06:51:01;;;;;;;16.73;4.80;;;;;;;4.15;100.00;99098.72;4968951;28;20031;-82
2024/02/13 06:53:27;;;;;;;22.45;5.78;;;;;;;4.08;100.00;99093.13;4974571;28;20026;-81
2024/02/13 06:55:52;;;;;;;14.98;4.55;;;;;;;4.18;100.00;99106.44;4971958;28;20062;-82
2024/02/13 06:58:18;;;;;;;11.25;3.78;;;;;;;-97.69;100.00;99115.22;4982935;28;20018;-82
2024/02/13 07:00:43;;;;;;;16.88;4.65;;;;;;;4.34;100.00;99113.75;4974413;28;20074;-80
2024/02/13 07:03:09;;;;;;;13.55;4.20;;;;;;;4.33;100.00;99093.34;4988215;28;20062;-82
2024/02/13 07:05:35;;;;;;;17.58;5.18;;;;;;;4.53;100.00;99126.13;4975573;28;20082;-83
2024/02/13 07:08:00;;;;;;;14.82;3.65;;;;;;;4.53;100.00;99126.13;4983408;28;20027;-83
2024/02/13 07:10:25;;;;;;;12.52;3.72;;;;;;;4.49;100.00;99114.88;4973871;28;20038;-82
2024/02/13 07:12:51;;;;;;;14.25;5.65;;;;;;;4.43;100.00;99104.81;4976866;28;20322;-82
2024/02/13 07:15:17;;;;;;;7.07;4.90;;;;;;;4.30;100.00;99085.63;4970957;28;20030;-82
2024/02/13 07:17:42;;;;;;;16.85;5.93;;;;;;;4.68;100.00;99134.44;4979915;28;20025;-83
2024/02/13 07:20:10;;;;;;;13.38;5.75;;;;;;;4.44;100.00;99097.59;4979959;28;20186;-82
2024/02/13 07:22:36;;;;;;;7.57;2.38;;;;;;;4.61;100.00;99127.03;4971452;28;20153;-70
2024/02/13 07:25:02;;;;;;;6.70;2.80;;;;;;;4.66;100.00;99137.25;4990630;28;20033;-82
2024/02/13 07:27:28;;;;;;;5.90;2.53;;;;;;;4.56;100.00;99113.28;4970094;28;20046;-75
2024/02/13 07:29:55;;;;;;;8.55;3.72;;;;;;;4.63;100.00;99129.53;4988793;28;20026;-75
2024/02/13 07:32:21;;;;;;;8.85;3.20;;;;;;;4.57;100.00;99124.81;4990084;28;20038;-74
2024/02/13 07:34:47;;;;;;;6.15;3.30;;;;;;;4.49;100.00;99128.28;4986776;28;20053;-74
2024/02/13 07:37:13;;;;;;;9.93;3.03;;;;;;;4.81;100.00;99145.56;4986929;28;20344;-78
2024/02/13 07:39:38;;;;;;;10.48;3.60;;;;;;;4.80;100.00;99144.75;4976387;28;20019;-78
2024/02/13 07:42:04;;;;;;;15.85;4.00;;;;;;;4.88;100.00;99145.81;4971711;28;20018;-78
2024/02/13 07:44:29;;;;;;;10.25;4.63;;;;;;;4.88;100.00;99145.81;4971658;28;20246;-77
2024/02/13 07:46:58;;;;;;;16.23;4.50;;;;;;;5.02;100.00;99153.25;4997025;28;20365;-77
2024/02/13 07:49:24;;;;;;;12.65;4.38;;;;;;;5.18;100.00;99152.47;4967295;28;20093;-72
2024/02/13 07:51:51;;;;;;;9.75;4.43;;;;;;;5.55;100.00;99153.97;4970942;28;20043;-76
2024/02/13 07:54:17;;;;;;;9.73;4.00;;;;;;;6.51;100.00;99116.69;4970364;28;20030;-78
2024/02/13 07:56:42;;;;;;;16.40;4.90;;;;;;;7.33;100.00;99135.31;4990519;28;20112;-77
2024/02/13 07:59:09;;;;;;;11.35;4.05;;;;;;;7.21;100.00;99134.03;4972869;28;20098;-77
2024/02/13 08:01:35;;;;;;;12.60;3.97;;;;;;;7.03;100.00;99134.25;4973146;28;20030;-77
2024/02/13 08:04:00;;;;;;;8.90;3.83;;;;;;;7.19;100.00;99136.88;4983125;28;20035;-76
2024/02/13 08:06:26;;;;;;;10.25;3.97;;;;;;;8.84;100.00;99126.72;4978714;28;20030;-78
2024/02/13 08:08:52;;;;;;;18.65;6.57;;;;;;;9.68;100.00;99110.19;4969447;28;20191;-77
2024/02/13 08:11:17;;;;;;;19.50;6.78;;;;;;;9.59;100.00;99106.75;4967275;28;20035;-77
2024/02/13 08:13:43;;;;;;;19.45;6.85;;;;;;;9.29;100.00;99103.25;4985422;28;20199;-78
2024/02/13 08:16:11;;;;;;;12.90;5.85;;;;;;;9.07;100.00;99102.34;4974111;28;20311;-75
2024/02/13 08:18:37;;;;;;;11.27;4.13;;;;;;;8.49;100.00;99137.16;4971052;28;20031;-75
2024/02/13 08:21:02;;;;;;;12.38;3.90;;;;;;;8.60;100.00;99129.66;4977176;28;20049;-75
2024/02/13 08:23:28;;;;;;;13.52;4.10;;;;;;;8.54;100.00;99134.75;4968799;28;20046;-81
2024/02/13 08:25:53;;;;;;;15.32;4.22;;;;;;;8.65;100.00;99127.25;4968767;28;20093;-68
2024/02/13 08:28:21;;;;;;;7.53;3.17;;;;;;;9.24;100.00;99145.34;4979505;28;20030;-71
2024/02/13 08:30:49;;;;;;;6.85;2.70;;;;;;;9.77;100.00;99122.56;4967950;28;20039;-67
2024/02/13 08:33:16;;;;;;;6.78;2.90;;;;;;;10.26;100.00;99134.50;4968647;28;20030;-67
2024/02/13 08:35:42;;;;;;;14.75;2.72;;;;;;;10.50;100.00;99133.28;4991687;28;20030;-67
2024/02/13 08:38:13;;;;;;;8.95;3.08;;;;;;;10.88;100.00;99132.97;4989073;28;20257;-79
2024/02/13 08:40:39;;;;;;;4.47;2.70;;;;;;;10.51;100.00;99122.28;4983829;28;20026;-67
2024/02/13 08:43:05;;;;;;;10.32;2.50;;;;;;;11.57;100.00;99127.53;4985027;28;20314;-67
2024/02/13 08:45:30;;;;;;;7.25;2.65;;;;;;;11.61;100.00;99122.56;4981423;28;20034;-67
2024/02/13 08:47:55;;;;;;;10.15;2.25;;;;;;;13.57;100.00;99117.66;4985931;28;20250;-67
2024/02/13 08:50:21;;;;;;;7.10;2.65;;;;;;;16.17;100.00;99118.09;4980740;28;20035;-67
2024/02/13 08:52:46;;;;;;;7.40;2.50;;;;;;;18.30;78.73;99097.72;4985029;28;20369;-67
2024/02/13 08:55:13;;;;;;;8.98;3.17;;;;;;;19.50;69.19;99106.47;4993072;28;20025;-67
2024/02/13 08:57:38;;;;;;;9.90;4.05;;;;;;;18.36;72.62;99113.16;4980529;28;20102;-67
2024/02/13 09:00:05;;;;;;;8.60;3.90;;;;;;;15.04;90.21;99124.88;4986253;28;20030;-67
2024/02/13 09:02:30;;;;;;;11.35;4.00;;;;;;;16.28;89.73;99109.09;4982110;28;20405;-67
2024/02/13 09:04:57;;;;;;;16.38;4.20;;;;;;;17.45;85.68;99122.03;4978118;28;20018;-67
2024/02/13 09:07:23;;;;;;;7.85;2.70;;;;;;;18.81;70.56;99118.66;4981133;28;20065;-67
2024/02/13 09:09:50;;;;;;;8.25;2.60;;;;;;;19.42;68.12;99124.22;4982059;28;20050;-71
2024/02/13 09:12:15;;;;;;;9.07;2.40;;;;;;;20.83;62.32;99129.94;4963172;28;20034;-67
2024/02/13 09:14:41;;;;;;;6.03;2.42;;;;;;;22.18;58.45;99114.72;4978732;28;20023;-67
2024/02/13 09:17:08;;;;;;;10.23;3.80;;;;;;;21.47;58.76;99108.94;4979678;28;20027;-67
2024/02/13 09:19:33;;;;;;;7.32;2.45;;;;;;;21.70;55.56;99124.19;4980826;28;20167;-67
2024/02/13 09:21:58;;;;;;;7.60;2.17;;;;;;;21.74;56.53;99120.63;4978458;28;20116;-67
2024/02/13 09:24:25;;;;;;;7.00;1.98;;;;;;;21.70;55.50;99121.44;4980249;28;20057;-68
2024/02/13 09:26:51;;;;;;;7.15;2.17;;;;;;;22.14;55.05;99123.78;4978803;28;20042;-67
2024/02/13 09:29:17;;;;;;;6.10;1.83;;;;;;;21.48;55.30;99099.56;4978798;28;20045;-74
2024/02/13 09:31:43;;;;;;;4.55;1.50;;;;;;;23.02;55.95;99114.56;4963175;28;20019;-67
2024/02/13 09:34:08;;;;;;;6.65;2.10;;;;;;;22.17;52.58;99117.75;4979600;28;20115;-67
2024/02/13 09:36:37;;;;;;;5.93;1.45;;;;;;;22.46;53.89;99123.63;4984167;28;20074;-67
2024/02/13 09:39:03;;;;;;;;;;;;;;;19.70;56.40;99125.13;4987203;28;20019;-67
2024/02/13 09:41:29;;;;;;;6.53;1.30;;;;;;;19.04;58.41;99127.75;4984212;28;19921;-70
2024/02/13 09:43:55;;;;;;;6.78;1.42;;;;;;;16.70;62.61;99136.38;4985439;28;20213;-80
2024/02/13 09:46:24;;;;;;;3.80;1.20;;;;;;;16.93;67.03;99137.53;4994388;28;20260;-80
2024/02/13 09:48:53;;;;;;;4.63;1.38;;;;;;;15.90;69.60;99137.56;4976281;28;20019;-80
2024/02/13 09:51:18;;;;;;;;;;;;;;;14.18;80.12;99132.63;4987705;28;20082;-71
2024/02/13 09:53:46;;;;;;;6.65;1.60;;;;;;;13.82;100.00;99142.22;4977134;28;19910;-70
2024/02/13 09:56:14;;;;;;;4.38;1.40;;;;;;;16.84;87.00;99132.38;4988826;28;20030;-71
2024/02/13 09:58:41;;;;;;;4.15;1.20;;;;;;;19.70;67.07;99123.25;4981992;28;20022;-71
2024/02/13 10:01:06;;;;;;;5.95;2.05;;;;;;;20.22;65.31;99134.81;4980803;28;20027;-71
2024/02/13 10:03:31;;;;;;;6.22;1.52;;;;;;;20.77;61.21;99137.28;4988101;28;20034;-71
2024/02/13 10:05:57;;;;;;;7.13;1.30;;;;;;;20.68;59.88;99124.31;4984585;28;20069;-71
2024/02/13 10:08:27;;;;;;;6.95;1.15;;;;;;;21.34;56.93;99123.97;4989086;28;20045;-71
2024/02/13 10:11:02;;;;;;;3.22;1.13;;;;;;;21.05;57.18;99135.31;4971451;28;20068;-71
2024/02/13 10:13:38;;;;;;;5.65;1.45;;;;;;;19.29;59.26;99145.69;4981843;28;20030;-71
2024/02/13 10:16:04;;;;;;;5.00;1.42;;;;;;;19.22;62.06;99146.69;4986018;28;20030;-71
2024/02/13 10:18:29;;;;;;;4.00;1.17;;;;;;;19.66;59.39;99151.44;4993466;28;20068;-71
2024/02/13 10:20:55;;;;;;;5.03;1.30;;;;;;;21.31;57.24;99146.53;4990249;28;20026;-71
2024/02/13 10:23:24;;;;;;;4.65;1.35;;;;;;;23.01;52.32;99132.22;4968121;28;20141;-71
2024/02/13 10:25:49;;;;;;;6.13;1.20;;;;;;;21.51;54.35;99143.94;4979550;28;21193;-71
2024/02/13 10:28:17;;;;;;;5.70;1.27;;;;;;;23.36;51.95;99139.63;4993167;28;20325;-71
2024/02/13 10:30:48;;;;;;;4.38;0.90;;;;;;;24.11;50.80;99144.38;4981137;28;20101;-71
2024/02/13 10:33:15;;;;;;;5.75;1.48;;;;;;;25.12;47.54;99142.84;4985398;28;20210;-71
2024/02/13 10:35:40;;;;;;;4.32;1.35;;;;;;;22.40;48.79;99144.84;4982754;28;20035;-71
2024/02/13 10:38:07;;;;;;;4.47;1.20;;;;;;;20.81;53.13;99154.13;4985971;28;20074;-71
2024/02/13 10:40:35;;;;;;;5.68;1.48;;;;;;;19.66;55.99;99121.22;4988398;28;20037;-71
2024/02/13 10:43:03;;;;;;;5.83;1.27;;;;;;;23.52;50.52;99138.47;4979432;28;20050;-71
2024/02/13 10:45:30;;;;;;;3.10;1.00;;;;;;;24.66;46.66;99146.00;4986547;28;20327;-71
2024/02/13 10:48:23;;;;;;;4.95;1.17;;;;;;;26.06;45.94;99132.47;4993407;28;20030;-72
2024/02/13 10:50:50;;;;;;;5.78;1.42;;;;;;;27.02;43.66;99129.38;4988380;28;20037;-72
2024/02/13 10:53:18;;;;;;;2.90;1.10;;;;;;;24.14;46.78;99144.63;4983894;28;20133;-72
2024/02/13 10:55:45;;;;;;;4.80;1.10;;;;;;;21.13;49.91;99137.59;4986858;28;20073;-71
2024/02/13 10:58:13;;;;;;;3.85;1.30;;;;;;;22.36;49.84;99149.25;4980973;28;20310;-71
2024/02/13 11:00:39;;;;;;;6.50;1.30;;;;;;;21.24;50.11;99146.75;4971050;28;20031;-71
2024/02/13 11:03:06;;;;;;;4.25;1.27;;;;;;;19.15;53.74;99146.06;4988076;28;20041;-71
2024/02/13 11:05:32;;;;;;;3.72;0.90;;;;;;;19.25;54.11;99146.19;4984443;28;20034;-71
2024/02/13 11:07:57;;;;;;;5.20;1.17;;;;;;;17.97;56.62;99148.56;4984443;28;20037;-71
2024/02/13 11:10:34;;;;;;;4.32;1.00;;;;;;;16.81;58.78;99164.81;4978487;28;20236;-71
2024/02/13 11:13:01;;;;;;;6.38;1.73;;;;;;;15.62;62.70;99164.53;4983072;28;20030;-71
2024/02/13 11:15:29;;;;;;;4.53;0.95;;;;;;;16.40;60.46;99153.66;4990306;28;20078;-71
2024/02/13 11:17:55;;;;;;;6.00;1.15;;;;;;;16.03;62.02;99152.06;4991395;28;20026;-71
2024/02/13 11:20:24;;;;;;;2.85;0.90;;;;;;;15.20;61.84;99139.81;4985462;28;20056;-70
2024/02/13 11:22:59;;;;;;;4.43;0.85;;;;;;;14.88;64.06;99139.84;4980280;28;20022;-70
2024/02/13 11:25:34;;;;;;;3.05;0.60;;;;;;;18.00;57.18;99128.09;4987992;28;20202;-70
2024/02/13 11:28:11;;;;;;;3.85;0.93;;;;;;;18.93;53.08;99118.53;4989980;28;20027;-71
2024/02/13 11:30:40;;;;;;;3.65;0.82;;;;;;;19.27;53.47;99127.56;4993655;28;20101;-71
2024/02/13 11:33:06;;;;;;;4.95;0.77;;;;;;;18.77;53.91;99122.94;4992115;28;20098;-71